Yellowstone — 9V2870 — position and weather

sailwx.info

Track history (hours):
 
Tides and Currents Weather Stations Pressure Air Temp Water Temp Dewpoint Dewpoint Depression Visibility Wind Speed Wind Dir Waves Ship Positions

Yellowstone

Last reported at 2018-May-06 07:45 UTC. Time now 2018-May-24 08:06 UTC.
Position S 30°58' E 030°28'.
Warning: this ship's position is 18 days out of date.

Type: Cargo ship. MMSI: 365042000.

Date/timePositionNaut miles runAvg speedWind from/ knotsBaromVisibWave heightAir tempDewpointWater temp
2018-May-06 07:45S 30°58' E 030°28'416.4
2018-May-06 07:29S 30°55' E 030°31'816.1
2018-May-06 07:00S 30°48' E 030°36'3215.5
2018-May-06 04:57S 30°20' E 030°53'815.2
2018-May-06 04:25S 30°13' E 030°56'614.9
2018-May-06 04:00S 30°07' E 030°59'714.6
2018-May-06 03:30S 30°00' E 031°03'714.3
2018-May-06 03:00S 29°54' E 031°06'3 6.2
2018-May-06 02:30S 29°52' E 031°04'1 3.0
2018-May-06 01:59S 29°52' E 031°02'0 0.0
2018-May-06 01:29S 29°52' E 031°02'0 0.0
2018-May-06 00:56S 29°52' E 031°02'0 0.0
2018-May-06 00:26S 29°52' E 031°02'0 0.0
2018-May-05 23:56S 29°52' E 031°02'0 0.0
2018-May-05 23:26S 29°52' E 031°02'0 0.0
2018-May-05 22:50S 29°52' E 031°02'0 0.0
2018-May-05 22:20S 29°52' E 031°02'0 0.0
2018-May-05 21:59S 29°52' E 031°02'0 0.0
2018-May-05 21:26S 29°52' E 031°02'0 0.0
2018-May-05 20:56S 29°52' E 031°02'0 0.0
2018-May-05 20:26S 29°52' E 031°02'0 0.0
2018-May-05 19:56S 29°52' E 031°02'0 0.0
2018-May-05 19:29S 29°52' E 031°02'0 0.0
2018-May-05 18:56S 29°52' E 031°02'0 0.0
2018-May-05 18:26S 29°52' E 031°02'0 0.0
2018-May-05 17:59S 29°52' E 031°02'0 0.0
2018-May-05 17:29S 29°52' E 031°02'0 0.0
2018-May-05 16:59S 29°52' E 031°02'0 0.0
2018-May-05 16:28S 29°52' E 031°02'0 0.0
2018-May-05 15:56S 29°52' E 031°02'0 0.0
2018-May-05 15:29S 29°52' E 031°02'0 0.0
2018-May-05 14:59S 29°52' E 031°02'0 0.0
2018-May-05 14:20S 29°52' E 031°02'0 0.0
2018-May-05 13:56S 29°52' E 031°02'0 0.0
2018-May-05 13:26S 29°52' E 031°02'0 0.0
2018-May-05 12:50S 29°52' E 031°02'0 0.0
2018-May-05 12:20S 29°52' E 031°02'0 0.0
2018-May-05 11:56S 29°52' E 031°02'0 0.0
2018-May-05 11:26S 29°52' E 031°02'0 0.0
2018-May-05 11:00S 29°52' E 031°02'0 0.0
2018-May-05 10:30S 29°52' E 031°02'0 0.0
2018-May-05 10:00S 29°52' E 031°02'0 0.0
2018-May-05 09:24S 29°52' E 031°02'0 0.0
2018-May-05 08:54S 29°52' E 031°02'0 0.0
2018-May-05 08:30S 29°52' E 031°02'0 0.0
2018-May-05 08:00S 29°52' E 031°02'0 0.1
2018-May-05 07:30S 29°52' E 031°02'2 4.6
2018-May-05 07:00S 29°51' E 031°04'3 6.5
2018-May-05 06:30S 29°49' E 031°08'4 9.0
2018-May-05 06:00S 29°46' E 031°12'713.0
2018-May-05 05:30S 29°42' E 031°17'612.8
2018-May-05 05:00S 29°38' E 031°23'612.4
2018-May-05 04:30S 29°34' E 031°29'612.4
2018-May-05 04:00S 29°30' E 031°34'712.2
2018-May-05 03:28S 29°26' E 031°40'612.1
2018-May-05 03:00S 29°23' E 031°45'  
2018-May-02 22:51S 28°48' E 032°02'  
2018-Apr-28 12:24S 28°48' E 032°02'0 0.0
2018-Apr-28 11:54S 28°48' E 032°02'0 0.0
2018-Apr-28 11:30S 28°48' E 032°02'0 0.0
2018-Apr-28 11:00S 28°48' E 032°02'8 0.2
2018-Apr-26 18:47S 28°56' E 032°02'0 0.0
2018-Apr-26 18:29S 28°56' E 032°02'0 0.0
2018-Apr-26 17:56S 28°56' E 032°02'0 0.0
2018-Apr-26 14:29S 28°56' E 032°02'0 0.0
2018-Apr-26 13:26S 28°56' E 032°02'0 0.0
2018-Apr-26 12:14S 28°56' E 032°02'0 0.0
2018-Apr-26 11:56S 28°56' E 032°02'0 0.0
2018-Apr-26 09:32S 28°56' E 032°02'0 0.1
2018-Apr-26 09:26S 28°56' E 032°02'0 0.0
2018-Apr-26 08:50S 28°56' E 032°02'0 0.0
2018-Apr-26 08:26S 28°56' E 032°02'0 0.0
2018-Apr-26 07:50S 28°56' E 032°02'  
Track history (hours):
 
Tides and Currents Weather Stations Pressure Air Temp Water Temp Dewpoint Dewpoint Depression Visibility Wind Speed Wind Dir Waves Ship Positions

Yellowstone

Last reported at 2018-May-06 07:45 UTC. Time now 2018-May-24 08:06 UTC.
Position S 30°58' E 030°28'.
Warning: this ship's position is 18 days out of date.

Type: Cargo ship. MMSI: 365042000.

Date/timePositionNaut miles runAvg speedWind from/ knotsBaromVisibWave heightAir tempDewpointWater temp
2018-May-06 07:45S 30°58' E 030°28'416.4
2018-May-06 07:29S 30°55' E 030°31'816.1
2018-May-06 07:00S 30°48' E 030°36'3215.5
2018-May-06 04:57S 30°20' E 030°53'815.2
2018-May-06 04:25S 30°13' E 030°56'614.9
2018-May-06 04:00S 30°07' E 030°59'714.6
2018-May-06 03:30S 30°00' E 031°03'714.3
2018-May-06 03:00S 29°54' E 031°06'3 6.2
2018-May-06 02:30S 29°52' E 031°04'1 3.0
2018-May-06 01:59S 29°52' E 031°02'0 0.0
2018-May-06 01:29S 29°52' E 031°02'0 0.0
2018-May-06 00:56S 29°52' E 031°02'0 0.0
2018-May-06 00:26S 29°52' E 031°02'0 0.0
2018-May-05 23:56S 29°52' E 031°02'0 0.0
2018-May-05 23:26S 29°52' E 031°02'0 0.0
2018-May-05 22:50S 29°52' E 031°02'0 0.0
2018-May-05 22:20S 29°52' E 031°02'0 0.0
2018-May-05 21:59S 29°52' E 031°02'0 0.0
2018-May-05 21:26S 29°52' E 031°02'0 0.0
2018-May-05 20:56S 29°52' E 031°02'0 0.0
2018-May-05 20:26S 29°52' E 031°02'0 0.0
2018-May-05 19:56S 29°52' E 031°02'0 0.0
2018-May-05 19:29S 29°52' E 031°02'0 0.0
2018-May-05 18:56S 29°52' E 031°02'0 0.0
2018-May-05 18:26S 29°52' E 031°02'0 0.0
2018-May-05 17:59S 29°52' E 031°02'0 0.0
2018-May-05 17:29S 29°52' E 031°02'0 0.0
2018-May-05 16:59S 29°52' E 031°02'0 0.0
2018-May-05 16:28S 29°52' E 031°02'0 0.0
2018-May-05 15:56S 29°52' E 031°02'0 0.0
2018-May-05 15:29S 29°52' E 031°02'0 0.0
2018-May-05 14:59S 29°52' E 031°02'0 0.0
2018-May-05 14:20S 29°52' E 031°02'0 0.0
2018-May-05 13:56S 29°52' E 031°02'0 0.0
2018-May-05 13:26S 29°52' E 031°02'0 0.0
2018-May-05 12:50S 29°52' E 031°02'0 0.0
2018-May-05 12:20S 29°52' E 031°02'0 0.0
2018-May-05 11:56S 29°52' E 031°02'0 0.0
2018-May-05 11:26S 29°52' E 031°02'0 0.0
2018-May-05 11:00S 29°52' E 031°02'0 0.0
2018-May-05 10:30S 29°52' E 031°02'0 0.0
2018-May-05 10:00S 29°52' E 031°02'0 0.0
2018-May-05 09:24S 29°52' E 031°02'0 0.0
2018-May-05 08:54S 29°52' E 031°02'0 0.0
2018-May-05 08:30S 29°52' E 031°02'0 0.0
2018-May-05 08:00S 29°52' E 031°02'0 0.1
2018-May-05 07:30S 29°52' E 031°02'2 4.6
2018-May-05 07:00S 29°51' E 031°04'3 6.5
2018-May-05 06:30S 29°49' E 031°08'4 9.0
2018-May-05 06:00S 29°46' E 031°12'713.0
2018-May-05 05:30S 29°42' E 031°17'612.8
2018-May-05 05:00S 29°38' E 031°23'612.4
2018-May-05 04:30S 29°34' E 031°29'612.4
2018-May-05 04:00S 29°30' E 031°34'712.2
2018-May-05 03:28S 29°26' E 031°40'612.1
2018-May-05 03:00S 29°23' E 031°45'  
2018-May-02 22:51S 28°48' E 032°02'  
2018-Apr-28 12:24S 28°48' E 032°02'0 0.0
2018-Apr-28 11:54S 28°48' E 032°02'0 0.0
2018-Apr-28 11:30S 28°48' E 032°02'0 0.0
2018-Apr-28 11:00S 28°48' E 032°02'8 0.2
2018-Apr-26 18:47S 28°56' E 032°02'0 0.0
2018-Apr-26 18:29S 28°56' E 032°02'0 0.0
2018-Apr-26 17:56S 28°56' E 032°02'0 0.0
2018-Apr-26 14:29S 28°56' E 032°02'0 0.0
2018-Apr-26 13:26S 28°56' E 032°02'0 0.0
2018-Apr-26 12:14S 28°56' E 032°02'0 0.0
2018-Apr-26 11:56S 28°56' E 032°02'0 0.0
2018-Apr-26 09:32S 28°56' E 032°02'0 0.1
2018-Apr-26 09:26S 28°56' E 032°02'0 0.0
2018-Apr-26 08:50S 28°56' E 032°02'0 0.0
2018-Apr-26 08:26S 28°56' E 032°02'0 0.0
2018-Apr-26 07:50S 28°56' E 032°02'  

Dump ship's entire track history